sensor_id;sensor_type;location;lat;lon;timestamp;temperature;humidity
25668;DHT22;18003;-33.830;151.202;2023-05-28T00:01:47;13.20;99.40
25668;DHT22;18003;-33.830;151.202;2023-05-28T00:04:17;13.30;99.10
25668;DHT22;18003;-33.830;151.202;2023-05-28T00:06:49;13.40;99.00
25668;DHT22;18003;-33.830;151.202;2023-05-28T00:09:19;13.40;99.00
25668;DHT22;18003;-33.830;151.202;2023-05-28T00:11:49;13.40;98.80
25668;DHT22;18003;-33.830;151.202;2023-05-28T00:14:19;13.40;98.90
25668;DHT22;18003;-33.830;151.202;2023-05-28T00:16:49;13.40;98.90
25668;DHT22;18003;-33.830;151.202;2023-05-28T00:19:19;13.40;98.80
25668;DHT22;18003;-33.830;151.202;2023-05-28T00:21:50;13.40;98.80
25668;DHT22;18003;-33.830;151.202;2023-05-28T00:24:20;13.40;98.70
25668;DHT22;18003;-33.830;151.202;2023-05-28T00:26:50;13.40;98.70
25668;DHT22;18003;-33.830;151.202;2023-05-28T00:29:19;13.50;98.70
25668;DHT22;18003;-33.830;151.202;2023-05-28T00:31:49;13.50;98.60
25668;DHT22;18003;-33.830;151.202;2023-05-28T00:34:23;13.50;98.50
25668;DHT22;18003;-33.830;151.202;2023-05-28T00:36:51;13.50;98.50
25668;DHT22;18003;-33.830;151.202;2023-05-28T00:39:22;13.50;98.70
25668;DHT22;18003;-33.830;151.202;2023-05-28T00:42:02;13.50;98.80
25668;DHT22;18003;-33.830;151.202;2023-05-28T00:44:32;13.50;98.80
25668;DHT22;18003;-33.830;151.202;2023-05-28T00:47:03;13.50;98.70
25668;DHT22;18003;-33.830;151.202;2023-05-28T00:49:33;13.60;98.90
25668;DHT22;18003;-33.830;151.202;2023-05-28T00:52:03;13.60;99.00
25668;DHT22;18003;-33.830;151.202;2023-05-28T00:54:34;13.60;98.90
25668;DHT22;18003;-33.830;151.202;2023-05-28T00:57:04;13.60;99.00
25668;DHT22;18003;-33.830;151.202;2023-05-28T00:59:34;13.60;98.90
25668;DHT22;18003;-33.830;151.202;2023-05-28T01:02:04;13.60;98.90
25668;DHT22;18003;-33.830;151.202;2023-05-28T01:04:34;13.70;99.10
25668;DHT22;18003;-33.830;151.202;2023-05-28T01:07:04;13.70;99.10
25668;DHT22;18003;-33.830;151.202;2023-05-28T01:09:34;13.70;99.10
25668;DHT22;18003;-33.830;151.202;2023-05-28T01:12:06;13.70;99.00
25668;DHT22;18003;-33.830;151.202;2023-05-28T01:14:36;13.70;98.90
25668;DHT22;18003;-33.830;151.202;2023-05-28T01:17:06;13.70;99.00
25668;DHT22;18003;-33.830;151.202;2023-05-28T01:19:36;13.70;99.10
25668;DHT22;18003;-33.830;151.202;2023-05-28T01:22:07;13.70;99.00
25668;DHT22;18003;-33.830;151.202;2023-05-28T01:24:38;13.70;99.00
25668;DHT22;18003;-33.830;151.202;2023-05-28T01:27:08;13.70;99.00
25668;DHT22;18003;-33.830;151.202;2023-05-28T01:29:38;13.80;99.20
25668;DHT22;18003;-33.830;151.202;2023-05-28T01:32:08;13.80;99.20
25668;DHT22;18003;-33.830;151.202;2023-05-28T01:34:38;13.80;99.20
25668;DHT22;18003;-33.830;151.202;2023-05-28T01:37:09;13.80;99.30
25668;DHT22;18003;-33.830;151.202;2023-05-28T01:39:45;13.80;99.40
25668;DHT22;18003;-33.830;151.202;2023-05-28T01:42:15;13.80;99.20
25668;DHT22;18003;-33.830;151.202;2023-05-28T01:44:46;13.80;99.00
25668;DHT22;18003;-33.830;151.202;2023-05-28T01:47:16;13.80;99.30
25668;DHT22;18003;-33.830;151.202;2023-05-28T01:49:47;13.80;99.30
25668;DHT22;18003;-33.830;151.202;2023-05-28T01:52:17;13.90;99.30
25668;DHT22;18003;-33.830;151.202;2023-05-28T01:54:47;13.90;99.40
25668;DHT22;18003;-33.830;151.202;2023-05-28T01:57:17;13.90;99.40
25668;DHT22;18003;-33.830;151.202;2023-05-28T01:59:47;13.90;99.40
25668;DHT22;18003;-33.830;151.202;2023-05-28T02:02:17;13.90;99.30
25668;DHT22;18003;-33.830;151.202;2023-05-28T02:04:48;13.90;99.50
25668;DHT22;18003;-33.830;151.202;2023-05-28T02:07:18;13.90;99.50
25668;DHT22;18003;-33.830;151.202;2023-05-28T02:09:48;13.90;99.30
25668;DHT22;18003;-33.830;151.202;2023-05-28T02:12:18;13.90;99.50
25668;DHT22;18003;-33.830;151.202;2023-05-28T02:14:48;13.90;99.50
25668;DHT22;18003;-33.830;151.202;2023-05-28T02:17:18;13.90;99.60
25668;DHT22;18003;-33.830;151.202;2023-05-28T02:19:48;13.90;99.70
25668;DHT22;18003;-33.830;151.202;2023-05-28T02:22:18;13.90;99.80
25668;DHT22;18003;-33.830;151.202;2023-05-28T02:24:48;13.90;99.70
25668;DHT22;18003;-33.830;151.202;2023-05-28T02:27:18;13.90;99.70
25668;DHT22;18003;-33.830;151.202;2023-05-28T02:29:48;13.90;99.70
25668;DHT22;18003;-33.830;151.202;2023-05-28T02:32:18;14.00;99.60
25668;DHT22;18003;-33.830;151.202;2023-05-28T02:34:48;14.00;99.70
25668;DHT22;18003;-33.830;151.202;2023-05-28T02:37:18;14.00;99.70
25668;DHT22;18003;-33.830;151.202;2023-05-28T02:39:50;14.00;99.70
25668;DHT22;18003;-33.830;151.202;2023-05-28T02:42:21;14.00;99.70
25668;DHT22;18003;-33.830;151.202;2023-05-28T02:44:50;14.00;99.80
25668;DHT22;18003;-33.830;151.202;2023-05-28T02:47:20;14.00;99.90
25668;DHT22;18003;-33.830;151.202;2023-05-28T02:49:51;14.00;99.90
25668;DHT22;18003;-33.830;151.202;2023-05-28T02:52:21;14.00;99.80
25668;DHT22;18003;-33.830;151.202;2023-05-28T02:54:51;14.00;99.90
25668;DHT22;18003;-33.830;151.202;2023-05-28T02:57:21;14.00;99.90
25668;DHT22;18003;-33.830;151.202;2023-05-28T02:59:51;14.00;99.80
25668;DHT22;18003;-33.830;151.202;2023-05-28T03:02:20;14.00;99.90
25668;DHT22;18003;-33.830;151.202;2023-05-28T03:04:50;14.00;99.90
25668;DHT22;18003;-33.830;151.202;2023-05-28T03:07:21;14.00;99.90
25668;DHT22;18003;-33.830;151.202;2023-05-28T03:09:51;14.10;99.80
25668;DHT22;18003;-33.830;151.202;2023-05-28T03:12:21;14.10;99.90
25668;DHT22;18003;-33.830;151.202;2023-05-28T03:14:51;14.00;99.90
25668;DHT22;18003;-33.830;151.202;2023-05-28T03:17:21;14.10;99.90
25668;DHT22;18003;-33.830;151.202;2023-05-28T03:19:51;14.10;99.90
25668;DHT22;18003;-33.830;151.202;2023-05-28T03:22:21;14.10;99.90
25668;DHT22;18003;-33.830;151.202;2023-05-28T03:24:51;14.10;99.90
25668;DHT22;18003;-33.830;151.202;2023-05-28T03:27:22;14.10;99.90
25668;DHT22;18003;-33.830;151.202;2023-05-28T03:29:52;14.10;99.90
25668;DHT22;18003;-33.830;151.202;2023-05-28T03:32:22;14.10;99.90
25668;DHT22;18003;-33.830;151.202;2023-05-28T03:34:52;14.10;99.90
25668;DHT22;18003;-33.830;151.202;2023-05-28T03:37:22;14.10;99.90
25668;DHT22;18003;-33.830;151.202;2023-05-28T03:39:52;14.10;99.90
25668;DHT22;18003;-33.830;151.202;2023-05-28T03:42:22;14.10;99.90
25668;DHT22;18003;-33.830;151.202;2023-05-28T03:44:53;14.10;99.90
25668;DHT22;18003;-33.830;151.202;2023-05-28T03:47:23;14.10;99.90
25668;DHT22;18003;-33.830;151.202;2023-05-28T03:49:54;14.10;99.90
25668;DHT22;18003;-33.830;151.202;2023-05-28T03:52:24;14.10;99.90
25668;DHT22;18003;-33.830;151.202;2023-05-28T03:54:54;14.10;99.90
25668;DHT22;18003;-33.830;151.202;2023-05-28T03:57:24;14.20;99.90
25668;DHT22;18003;-33.830;151.202;2023-05-28T03:59:54;14.20;99.90
25668;DHT22;18003;-33.830;151.202;2023-05-28T04:02:25;14.20;99.90
25668;DHT22;18003;-33.830;151.202;2023-05-28T04:04:55;14.20;99.90
25668;DHT22;18003;-33.830;151.202;2023-05-28T04:07:25;14.20;99.90
25668;DHT22;18003;-33.830;151.202;2023-05-28T04:09:55;14.20;99.90
25668;DHT22;18003;-33.830;151.202;2023-05-28T04:12:25;14.20;99.90
25668;DHT22;18003;-33.830;151.202;2023-05-28T04:14:55;14.20;99.90
25668;DHT22;18003;-33.830;151.202;2023-05-28T04:17:25;14.20;99.90
25668;DHT22;18003;-33.830;151.202;2023-05-28T04:19:55;14.20;99.90
25668;DHT22;18003;-33.830;151.202;2023-05-28T04:22:25;14.20;99.90
25668;DHT22;18003;-33.830;151.202;2023-05-28T04:24:55;14.20;99.90
25668;DHT22;18003;-33.830;151.202;2023-05-28T04:27:25;14.20;99.90
25668;DHT22;18003;-33.830;151.202;2023-05-28T04:29:55;14.20;99.90
25668;DHT22;18003;-33.830;151.202;2023-05-28T04:32:25;14.20;99.90
25668;DHT22;18003;-33.830;151.202;2023-05-28T04:34:55;14.30;99.90
25668;DHT22;18003;-33.830;151.202;2023-05-28T04:37:25;14.30;99.90
25668;DHT22;18003;-33.830;151.202;2023-05-28T04:39:56;14.30;99.90
25668;DHT22;18003;-33.830;151.202;2023-05-28T04:42:26;14.30;99.90
25668;DHT22;18003;-33.830;151.202;2023-05-28T04:44:56;14.30;99.90
25668;DHT22;18003;-33.830;151.202;2023-05-28T04:47:27;14.30;99.90
25668;DHT22;18003;-33.830;151.202;2023-05-28T04:49:57;14.20;99.90
25668;DHT22;18003;-33.830;151.202;2023-05-28T04:52:27;14.20;99.90
25668;DHT22;18003;-33.830;151.202;2023-05-28T04:54:58;14.20;99.90
25668;DHT22;18003;-33.830;151.202;2023-05-28T04:57:28;14.20;99.90
25668;DHT22;18003;-33.830;151.202;2023-05-28T04:59:58;14.30;99.90
25668;DHT22;18003;-33.830;151.202;2023-05-28T05:02:28;14.20;99.90
25668;DHT22;18003;-33.830;151.202;2023-05-28T05:04:58;14.20;99.90
25668;DHT22;18003;-33.830;151.202;2023-05-28T05:07:28;14.20;99.90
25668;DHT22;18003;-33.830;151.202;2023-05-28T05:09:58;14.20;99.90
25668;DHT22;18003;-33.830;151.202;2023-05-28T05:12:28;14.30;99.90
25668;DHT22;18003;-33.830;151.202;2023-05-28T05:14:58;14.30;99.90
25668;DHT22;18003;-33.830;151.202;2023-05-28T05:17:28;14.30;99.90
25668;DHT22;18003;-33.830;151.202;2023-05-28T05:20:00;14.20;99.90
25668;DHT22;18003;-33.830;151.202;2023-05-28T05:22:29;14.20;99.90
25668;DHT22;18003;-33.830;151.202;2023-05-28T05:24:59;14.30;99.90
25668;DHT22;18003;-33.830;151.202;2023-05-28T05:27:29;14.20;99.90
25668;DHT22;18003;-33.830;151.202;2023-05-28T05:29:59;14.30;99.90
25668;DHT22;18003;-33.830;151.202;2023-05-28T05:32:29;14.30;99.90
25668;DHT22;18003;-33.830;151.202;2023-05-28T05:34:59;14.30;99.90
25668;DHT22;18003;-33.830;151.202;2023-05-28T05:37:29;14.30;99.90
25668;DHT22;18003;-33.830;151.202;2023-05-28T05:39:59;14.30;99.90
25668;DHT22;18003;-33.830;151.202;2023-05-28T05:42:29;14.30;99.90
25668;DHT22;18003;-33.830;151.202;2023-05-28T05:44:59;14.30;99.90
25668;DHT22;18003;-33.830;151.202;2023-05-28T05:47:31;14.30;99.90
25668;DHT22;18003;-33.830;151.202;2023-05-28T05:50:01;14.40;99.90
25668;DHT22;18003;-33.830;151.202;2023-05-28T05:52:31;14.30;99.90
25668;DHT22;18003;-33.830;151.202;2023-05-28T05:55:01;14.30;99.90
25668;DHT22;18003;-33.830;151.202;2023-05-28T05:57:31;14.30;99.90
25668;DHT22;18003;-33.830;151.202;2023-05-28T06:00:02;14.30;99.90
25668;DHT22;18003;-33.830;151.202;2023-05-28T06:02:33;14.30;99.90
25668;DHT22;18003;-33.830;151.202;2023-05-28T06:05:04;14.30;99.90
25668;DHT22;18003;-33.830;151.202;2023-05-28T06:07:34;14.30;99.90
25668;DHT22;18003;-33.830;151.202;2023-05-28T06:10:04;14.30;99.90
25668;DHT22;18003;-33.830;151.202;2023-05-28T06:12:34;14.30;99.90
25668;DHT22;18003;-33.830;151.202;2023-05-28T06:15:05;14.20;99.90
25668;DHT22;18003;-33.830;151.202;2023-05-28T06:17:35;14.30;99.90
25668;DHT22;18003;-33.830;151.202;2023-05-28T06:20:06;14.20;99.90
25668;DHT22;18003;-33.830;151.202;2023-05-28T06:22:36;14.20;99.90
25668;DHT22;18003;-33.830;151.202;2023-05-28T06:25:06;14.20;99.90
25668;DHT22;18003;-33.830;151.202;2023-05-28T06:27:36;14.30;99.90
25668;DHT22;18003;-33.830;151.202;2023-05-28T06:30:07;14.30;99.90
25668;DHT22;18003;-33.830;151.202;2023-05-28T06:32:38;14.30;99.90
25668;DHT22;18003;-33.830;151.202;2023-05-28T06:35:11;14.20;99.90
25668;DHT22;18003;-33.830;151.202;2023-05-28T06:37:41;14.20;99.90
25668;DHT22;18003;-33.830;151.202;2023-05-28T06:40:11;14.30;99.90
25668;DHT22;18003;-33.830;151.202;2023-05-28T06:42:41;14.20;99.90
25668;DHT22;18003;-33.830;151.202;2023-05-28T06:45:11;14.20;99.90
25668;DHT22;18003;-33.830;151.202;2023-05-28T06:47:42;14.30;99.90
25668;DHT22;18003;-33.830;151.202;2023-05-28T06:50:12;14.20;99.90
25668;DHT22;18003;-33.830;151.202;2023-05-28T06:52:42;14.30;99.90
25668;DHT22;18003;-33.830;151.202;2023-05-28T06:55:12;14.20;99.90
25668;DHT22;18003;-33.830;151.202;2023-05-28T06:57:42;14.20;99.90
25668;DHT22;18003;-33.830;151.202;2023-05-28T07:00:13;14.30;99.90
25668;DHT22;18003;-33.830;151.202;2023-05-28T07:02:45;14.30;99.90
25668;DHT22;18003;-33.830;151.202;2023-05-28T07:05:15;14.20;99.90
25668;DHT22;18003;-33.830;151.202;2023-05-28T07:07:45;14.20;99.90
25668;DHT22;18003;-33.830;151.202;2023-05-28T07:10:15;14.30;99.90
25668;DHT22;18003;-33.830;151.202;2023-05-28T07:12:45;14.20;99.90
25668;DHT22;18003;-33.830;151.202;2023-05-28T07:15:15;14.30;99.90
25668;DHT22;18003;-33.830;151.202;2023-05-28T07:17:45;14.30;99.90
25668;DHT22;18003;-33.830;151.202;2023-05-28T07:20:15;14.30;99.90
25668;DHT22;18003;-33.830;151.202;2023-05-28T07:22:45;14.30;99.90
25668;DHT22;18003;-33.830;151.202;2023-05-28T07:25:15;14.30;99.90
25668;DHT22;18003;-33.830;151.202;2023-05-28T07:27:45;14.30;99.90
25668;DHT22;18003;-33.830;151.202;2023-05-28T07:30:16;14.20;99.90
25668;DHT22;18003;-33.830;151.202;2023-05-28T07:32:46;14.20;99.90
25668;DHT22;18003;-33.830;151.202;2023-05-28T07:35:16;14.20;99.90
25668;DHT22;18003;-33.830;151.202;2023-05-28T07:37:46;14.20;99.90
25668;DHT22;18003;-33.830;151.202;2023-05-28T07:40:17;14.20;99.90
25668;DHT22;18003;-33.830;151.202;2023-05-28T07:42:47;14.20;99.90
25668;DHT22;18003;-33.830;151.202;2023-05-28T07:45:17;14.20;99.90
25668;DHT22;18003;-33.830;151.202;2023-05-28T07:47:47;14.20;99.90
25668;DHT22;18003;-33.830;151.202;2023-05-28T07:50:17;14.20;99.90
25668;DHT22;18003;-33.830;151.202;2023-05-28T07:52:47;14.20;99.90
25668;DHT22;18003;-33.830;151.202;2023-05-28T07:55:18;14.20;99.90
25668;DHT22;18003;-33.830;151.202;2023-05-28T07:57:48;14.20;99.90
25668;DHT22;18003;-33.830;151.202;2023-05-28T08:00:18;14.20;99.90
25668;DHT22;18003;-33.830;151.202;2023-05-28T08:02:48;14.20;99.90
25668;DHT22;18003;-33.830;151.202;2023-05-28T08:05:19;14.20;99.90
25668;DHT22;18003;-33.830;151.202;2023-05-28T08:07:51;14.20;99.90
25668;DHT22;18003;-33.830;151.202;2023-05-28T08:10:19;14.20;99.90
25668;DHT22;18003;-33.830;151.202;2023-05-28T08:12:49;14.20;99.90
25668;DHT22;18003;-33.830;151.202;2023-05-28T08:15:19;14.20;99.90
25668;DHT22;18003;-33.830;151.202;2023-05-28T08:17:49;14.30;99.90
25668;DHT22;18003;-33.830;151.202;2023-05-28T08:20:19;14.20;99.90
25668;DHT22;18003;-33.830;151.202;2023-05-28T08:22:50;14.20;99.90
25668;DHT22;18003;-33.830;151.202;2023-05-28T08:25:20;14.20;99.90
25668;DHT22;18003;-33.830;151.202;2023-05-28T08:27:53;14.20;99.90
25668;DHT22;18003;-33.830;151.202;2023-05-28T08:30:21;14.20;99.90
25668;DHT22;18003;-33.830;151.202;2023-05-28T08:32:51;14.20;99.90
25668;DHT22;18003;-33.830;151.202;2023-05-28T08:35:21;14.20;99.90
25668;DHT22;18003;-33.830;151.202;2023-05-28T08:37:51;14.20;99.90
25668;DHT22;18003;-33.830;151.202;2023-05-28T08:40:21;14.00;99.90
25668;DHT22;18003;-33.830;151.202;2023-05-28T08:42:51;13.70;99.90
25668;DHT22;18003;-33.830;151.202;2023-05-28T08:45:21;13.30;99.90
25668;DHT22;18003;-33.830;151.202;2023-05-28T08:47:51;13.10;99.90
25668;DHT22;18003;-33.830;151.202;2023-05-28T08:50:22;13.00;99.90
25668;DHT22;18003;-33.830;151.202;2023-05-28T08:52:53;12.70;99.90
25668;DHT22;18003;-33.830;151.202;2023-05-28T08:55:23;12.50;99.90
25668;DHT22;18003;-33.830;151.202;2023-05-28T08:57:53;12.30;99.90
25668;DHT22;18003;-33.830;151.202;2023-05-28T09:00:23;12.20;99.90
25668;DHT22;18003;-33.830;151.202;2023-05-28T09:02:53;12.10;99.90
25668;DHT22;18003;-33.830;151.202;2023-05-28T09:05:23;12.10;99.90
25668;DHT22;18003;-33.830;151.202;2023-05-28T09:07:53;12.00;99.90
25668;DHT22;18003;-33.830;151.202;2023-05-28T09:10:23;12.00;99.90
25668;DHT22;18003;-33.830;151.202;2023-05-28T09:13:00;12.00;99.90
25668;DHT22;18003;-33.830;151.202;2023-05-28T09:15:30;11.90;99.90
25668;DHT22;18003;-33.830;151.202;2023-05-28T09:18:00;11.80;99.90
25668;DHT22;18003;-33.830;151.202;2023-05-28T09:20:30;11.80;99.90
25668;DHT22;18003;-33.830;151.202;2023-05-28T09:23:04;11.80;99.90
25668;DHT22;18003;-33.830;151.202;2023-05-28T09:25:37;11.70;99.90
25668;DHT22;18003;-33.830;151.202;2023-05-28T09:28:07;11.70;99.90
25668;DHT22;18003;-33.830;151.202;2023-05-28T09:30:37;11.70;99.90
25668;DHT22;18003;-33.830;151.202;2023-05-28T09:33:08;11.60;99.90
25668;DHT22;18003;-33.830;151.202;2023-05-28T09:35:38;11.50;99.90
25668;DHT22;18003;-33.830;151.202;2023-05-28T09:38:10;11.50;99.90
25668;DHT22;18003;-33.830;151.202;2023-05-28T09:40:40;11.50;99.90
25668;DHT22;18003;-33.830;151.202;2023-05-28T09:43:10;11.60;99.90
25668;DHT22;18003;-33.830;151.202;2023-05-28T09:45:40;11.80;99.90
25668;DHT22;18003;-33.830;151.202;2023-05-28T09:48:10;11.70;99.90
25668;DHT22;18003;-33.830;151.202;2023-05-28T09:50:41;11.90;99.90
25668;DHT22;18003;-33.830;151.202;2023-05-28T09:53:11;11.90;99.90
25668;DHT22;18003;-33.830;151.202;2023-05-28T09:55:42;12.00;99.90
25668;DHT22;18003;-33.830;151.202;2023-05-28T09:58:13;12.00;99.90
25668;DHT22;18003;-33.830;151.202;2023-05-28T10:00:47;12.00;99.90
25668;DHT22;18003;-33.830;151.202;2023-05-28T10:03:32;11.80;99.90
25668;DHT22;18003;-33.830;151.202;2023-05-28T10:06:01;11.90;99.90
25668;DHT22;18003;-33.830;151.202;2023-05-28T10:08:33;11.90;99.90
25668;DHT22;18003;-33.830;151.202;2023-05-28T10:11:10;11.90;99.90
25668;DHT22;18003;-33.830;151.202;2023-05-28T10:13:36;11.80;99.90
25668;DHT22;18003;-33.830;151.202;2023-05-28T10:16:06;11.70;99.90
25668;DHT22;18003;-33.830;151.202;2023-05-28T10:18:36;11.70;99.90
25668;DHT22;18003;-33.830;151.202;2023-05-28T10:21:06;11.70;99.90
25668;DHT22;18003;-33.830;151.202;2023-05-28T10:23:37;11.70;99.90
25668;DHT22;18003;-33.830;151.202;2023-05-28T10:26:07;11.80;99.90
25668;DHT22;18003;-33.830;151.202;2023-05-28T10:28:38;11.80;99.90
25668;DHT22;18003;-33.830;151.202;2023-05-28T10:31:09;11.80;99.90
25668;DHT22;18003;-33.830;151.202;2023-05-28T10:33:47;11.70;99.90
25668;DHT22;18003;-33.830;151.202;2023-05-28T10:36:13;11.70;99.90
25668;DHT22;18003;-33.830;151.202;2023-05-28T10:41:21;11.70;99.90
25668;DHT22;18003;-33.830;151.202;2023-05-28T10:43:52;11.80;99.90
25668;DHT22;18003;-33.830;151.202;2023-05-28T10:49:15;11.70;99.90
25668;DHT22;18003;-33.830;151.202;2023-05-28T10:51:55;11.70;99.90
25668;DHT22;18003;-33.830;151.202;2023-05-28T10:57:18;11.70;99.90
25668;DHT22;18003;-33.830;151.202;2023-05-28T11:00:02;11.60;99.90
25668;DHT22;18003;-33.830;151.202;2023-05-28T11:02:37;11.70;99.90
25668;DHT22;18003;-33.830;151.202;2023-05-28T11:05:07;11.70;99.90
25668;DHT22;18003;-33.830;151.202;2023-05-28T11:07:41;11.60;99.90
25668;DHT22;18003;-33.830;151.202;2023-05-28T11:10:15;11.60;99.90
25668;DHT22;18003;-33.830;151.202;2023-05-28T11:12:45;11.70;99.90
25668;DHT22;18003;-33.830;151.202;2023-05-28T11:15:15;11.70;99.90
25668;DHT22;18003;-33.830;151.202;2023-05-28T11:17:46;11.70;99.90
25668;DHT22;18003;-33.830;151.202;2023-05-28T11:20:25;11.80;99.90
25668;DHT22;18003;-33.830;151.202;2023-05-28T11:22:56;11.70;99.90
25668;DHT22;18003;-33.830;151.202;2023-05-28T11:25:25;12.00;99.90
25668;DHT22;18003;-33.830;151.202;2023-05-28T11:27:55;12.30;99.90
25668;DHT22;18003;-33.830;151.202;2023-05-28T11:30:27;12.50;99.90
25668;DHT22;18003;-33.830;151.202;2023-05-28T11:33:01;12.60;99.90
25668;DHT22;18003;-33.830;151.202;2023-05-28T11:35:27;12.70;99.90
25668;DHT22;18003;-33.830;151.202;2023-05-28T11:37:58;12.80;99.90
25668;DHT22;18003;-33.830;151.202;2023-05-28T11:40:32;12.80;99.90
25668;DHT22;18003;-33.830;151.202;2023-05-28T11:43:00;12.80;99.90
25668;DHT22;18003;-33.830;151.202;2023-05-28T11:45:39;12.90;99.90
25668;DHT22;18003;-33.830;151.202;2023-05-28T11:48:12;12.90;99.90
25668;DHT22;18003;-33.830;151.202;2023-05-28T11:50:42;12.90;99.90
25668;DHT22;18003;-33.830;151.202;2023-05-28T11:53:12;13.00;99.90
25668;DHT22;18003;-33.830;151.202;2023-05-28T11:55:42;13.00;99.90
25668;DHT22;18003;-33.830;151.202;2023-05-28T11:58:11;13.00;99.90
25668;DHT22;18003;-33.830;151.202;2023-05-28T12:00:41;13.00;99.90
25668;DHT22;18003;-33.830;151.202;2023-05-28T12:03:12;13.00;99.90
25668;DHT22;18003;-33.830;151.202;2023-05-28T12:05:42;13.00;99.90
25668;DHT22;18003;-33.830;151.202;2023-05-28T12:08:12;13.00;99.90
25668;DHT22;18003;-33.830;151.202;2023-05-28T12:10:43;13.00;99.90
25668;DHT22;18003;-33.830;151.202;2023-05-28T12:13:16;13.00;99.90
25668;DHT22;18003;-33.830;151.202;2023-05-28T12:15:46;13.00;99.90
25668;DHT22;18003;-33.830;151.202;2023-05-28T12:18:19;13.00;99.90
25668;DHT22;18003;-33.830;151.202;2023-05-28T12:20:46;13.10;99.90
25668;DHT22;18003;-33.830;151.202;2023-05-28T12:23:19;13.10;99.90
25668;DHT22;18003;-33.830;151.202;2023-05-28T12:25:49;13.10;99.90
25668;DHT22;18003;-33.830;151.202;2023-05-28T12:28:19;13.10;99.90
25668;DHT22;18003;-33.830;151.202;2023-05-28T12:30:51;13.10;99.90
25668;DHT22;18003;-33.830;151.202;2023-05-28T12:33:22;13.10;99.90
25668;DHT22;18003;-33.830;151.202;2023-05-28T12:35:53;13.10;99.90
25668;DHT22;18003;-33.830;151.202;2023-05-28T12:38:24;12.90;99.90
25668;DHT22;18003;-33.830;151.202;2023-05-28T12:40:54;12.80;99.90
25668;DHT22;18003;-33.830;151.202;2023-05-28T12:43:24;12.70;99.90
25668;DHT22;18003;-33.830;151.202;2023-05-28T12:45:54;12.70;99.90
25668;DHT22;18003;-33.830;151.202;2023-05-28T12:48:24;12.70;99.90
25668;DHT22;18003;-33.830;151.202;2023-05-28T12:50:54;12.70;99.90
25668;DHT22;18003;-33.830;151.202;2023-05-28T12:53:24;12.60;99.90
25668;DHT22;18003;-33.830;151.202;2023-05-28T12:55:54;12.50;99.90
25668;DHT22;18003;-33.830;151.202;2023-05-28T12:58:24;12.20;99.90
25668;DHT22;18003;-33.830;151.202;2023-05-28T13:00:55;12.20;99.90
25668;DHT22;18003;-33.830;151.202;2023-05-28T13:03:25;12.10;99.90
25668;DHT22;18003;-33.830;151.202;2023-05-28T13:05:55;12.00;99.90
25668;DHT22;18003;-33.830;151.202;2023-05-28T13:08:25;12.00;99.90
25668;DHT22;18003;-33.830;151.202;2023-05-28T13:10:55;12.30;99.90
25668;DHT22;18003;-33.830;151.202;2023-05-28T13:13:26;12.70;99.90
25668;DHT22;18003;-33.830;151.202;2023-05-28T13:15:56;12.80;99.90
25668;DHT22;18003;-33.830;151.202;2023-05-28T13:18:26;12.90;99.90
25668;DHT22;18003;-33.830;151.202;2023-05-28T13:20:56;13.00;99.90
25668;DHT22;18003;-33.830;151.202;2023-05-28T13:23:26;13.10;99.90
25668;DHT22;18003;-33.830;151.202;2023-05-28T13:25:56;13.10;99.90
25668;DHT22;18003;-33.830;151.202;2023-05-28T13:28:26;13.10;99.90
25668;DHT22;18003;-33.830;151.202;2023-05-28T13:30:56;13.10;99.90
25668;DHT22;18003;-33.830;151.202;2023-05-28T13:33:26;13.10;99.90
25668;DHT22;18003;-33.830;151.202;2023-05-28T13:35:56;13.20;99.90
25668;DHT22;18003;-33.830;151.202;2023-05-28T13:38:26;13.20;99.90
25668;DHT22;18003;-33.830;151.202;2023-05-28T13:40:56;13.20;99.90
25668;DHT22;18003;-33.830;151.202;2023-05-28T13:43:27;13.20;99.90
25668;DHT22;18003;-33.830;151.202;2023-05-28T13:45:57;13.20;99.90
25668;DHT22;18003;-33.830;151.202;2023-05-28T13:48:27;13.20;99.90
25668;DHT22;18003;-33.830;151.202;2023-05-28T13:50:57;13.20;99.90
25668;DHT22;18003;-33.830;151.202;2023-05-28T13:53:34;13.30;99.90
25668;DHT22;18003;-33.830;151.202;2023-05-28T13:56:04;13.30;99.90
25668;DHT22;18003;-33.830;151.202;2023-05-28T13:58:34;13.30;99.90
25668;DHT22;18003;-33.830;151.202;2023-05-28T14:01:04;13.30;99.90
25668;DHT22;18003;-33.830;151.202;2023-05-28T14:03:35;13.30;99.90
25668;DHT22;18003;-33.830;151.202;2023-05-28T14:06:05;13.30;99.90
25668;DHT22;18003;-33.830;151.202;2023-05-28T14:08:36;13.30;99.90
25668;DHT22;18003;-33.830;151.202;2023-05-28T14:11:06;13.30;99.90
25668;DHT22;18003;-33.830;151.202;2023-05-28T14:13:36;13.30;99.90
25668;DHT22;18003;-33.830;151.202;2023-05-28T14:16:06;13.30;99.90
25668;DHT22;18003;-33.830;151.202;2023-05-28T14:18:36;13.30;99.90
25668;DHT22;18003;-33.830;151.202;2023-05-28T14:21:06;13.30;99.90
25668;DHT22;18003;-33.830;151.202;2023-05-28T14:23:36;13.30;99.90
25668;DHT22;18003;-33.830;151.202;2023-05-28T14:26:06;13.30;99.90
25668;DHT22;18003;-33.830;151.202;2023-05-28T14:28:36;13.30;99.90
25668;DHT22;18003;-33.830;151.202;2023-05-28T14:31:07;13.30;99.90
25668;DHT22;18003;-33.830;151.202;2023-05-28T14:33:37;13.30;99.90
25668;DHT22;18003;-33.830;151.202;2023-05-28T14:36:07;13.30;99.90
25668;DHT22;18003;-33.830;151.202;2023-05-28T14:38:38;13.20;99.90
25668;DHT22;18003;-33.830;151.202;2023-05-28T14:41:08;13.30;99.90
25668;DHT22;18003;-33.830;151.202;2023-05-28T14:43:38;13.30;99.90
25668;DHT22;18003;-33.830;151.202;2023-05-28T14:46:08;13.30;99.90
25668;DHT22;18003;-33.830;151.202;2023-05-28T14:48:38;13.30;99.90
25668;DHT22;18003;-33.830;151.202;2023-05-28T14:51:08;13.30;99.90
25668;DHT22;18003;-33.830;151.202;2023-05-28T14:53:38;13.30;99.90
25668;DHT22;18003;-33.830;151.202;2023-05-28T14:56:08;13.30;99.90
25668;DHT22;18003;-33.830;151.202;2023-05-28T14:58:38;13.30;99.90
25668;DHT22;18003;-33.830;151.202;2023-05-28T15:01:08;13.30;99.90
25668;DHT22;18003;-33.830;151.202;2023-05-28T15:03:38;13.30;99.90
25668;DHT22;18003;-33.830;151.202;2023-05-28T15:06:08;13.30;99.90
25668;DHT22;18003;-33.830;151.202;2023-05-28T15:08:39;13.30;99.90
25668;DHT22;18003;-33.830;151.202;2023-05-28T15:11:10;13.30;99.90
25668;DHT22;18003;-33.830;151.202;2023-05-28T15:13:41;13.30;99.90
25668;DHT22;18003;-33.830;151.202;2023-05-28T15:16:11;13.30;99.90